Time;durP1;ratioP1;P1;durP2;ratioP2;P2;SDS_P1;SDS_P2;PMS_P1;PMS_P2;Temp;Humidity;BMP_temperature;BMP_pressure;BME280_temperature;BME280_humidity;BME280_pressure;Samples;Min_cycle;Max_cycle;Signal;HPM_P1;HPM_P2
2023/05/20 00:00:08;;;;;;;0.00;0.00;;;;;;;15.29;49.86;102002.59;4979652;28;20026;-64
2023/05/20 00:02:33;;;;;;;0.10;0.10;;;;;;;15.23;49.75;102000.50;4990291;28;20401;-64
2023/05/20 00:04:59;;;;;;;0.40;0.28;;;;;;;15.21;50.19;102002.78;4991265;28;20046;-64
2023/05/20 00:07:25;;;;;;;0.22;0.20;;;;;;;15.19;50.38;102005.06;4972445;28;20131;-64
2023/05/20 00:09:50;;;;;;;0.93;0.30;;;;;;;15.15;50.25;102015.06;4987061;28;20069;-64
2023/05/20 00:12:16;;;;;;;0.05;0.05;;;;;;;15.22;50.31;102012.50;4993149;28;20401;-63
2023/05/20 00:14:41;;;;;;;0.20;0.20;;;;;;;15.22;50.76;102004.34;4993126;28;20042;-63
2023/05/20 00:17:07;;;;;;;0.08;0.08;;;;;;;15.24;50.24;102007.50;4967990;28;20088;-64
2023/05/20 00:19:32;;;;;;;0.68;0.63;;;;;;;14.96;50.73;102006.84;4962325;28;20035;-64
2023/05/20 00:21:58;;;;;;;0.08;0.08;;;;;;;14.79;50.82;102002.53;4983281;28;20409;-64
2023/05/20 00:24:24;;;;;;;0.10;0.10;;;;;;;14.84;50.84;102009.63;4990367;28;20080;-64
2023/05/20 00:26:50;;;;;;;0.40;0.28;;;;;;;14.86;51.05;102007.38;4975857;28;20034;-63
2023/05/20 00:29:15;;;;;;;0.40;0.20;;;;;;;14.85;51.36;102013.91;4975428;28;20474;-63
2023/05/20 00:31:40;;;;;;;0.08;0.08;;;;;;;14.97;50.95;102005.69;4971913;28;20037;-64
2023/05/20 00:34:07;;;;;;;0.17;0.17;;;;;;;14.80;51.21;102011.47;4970666;28;20014;-63
2023/05/20 00:36:34;;;;;;;0.00;0.00;;;;;;;14.81;51.27;102011.13;4985420;28;20081;-64
2023/05/20 00:38:59;;;;;;;0.10;0.10;;;;;;;14.79;51.54;102007.19;4987305;28;20089;-64
2023/05/20 00:41:25;;;;;;;0.10;0.10;;;;;;;14.81;51.43;102013.81;4982751;28;20101;-64
2023/05/20 00:43:54;;;;;;;0.00;0.00;;;;;;;14.84;51.61;102006.91;4986889;28;20089;-63
2023/05/20 00:46:20;;;;;;;0.15;0.15;;;;;;;14.82;51.83;102011.91;4975004;28;20123;-64
2023/05/20 00:48:46;;;;;;;0.20;0.20;;;;;;;14.70;51.48;102006.56;4990939;28;20026;-63
2023/05/20 00:51:13;;;;;;;0.43;0.43;;;;;;;14.82;51.69;102004.56;4986901;28;20126;-64
2023/05/20 00:53:40;;;;;;;0.10;0.10;;;;;;;14.75;52.08;102001.66;4968503;28;20038;-62
2023/05/20 00:56:06;;;;;;;0.65;0.17;;;;;;;14.67;51.71;102002.63;4987372;28;20037;-63
2023/05/20 00:58:33;;;;;;;0.15;0.15;;;;;;;14.63;51.87;101993.63;4989353;28;20034;-64
2023/05/20 01:00:58;;;;;;;0.10;0.10;;;;;;;14.57;51.88;101996.94;4989467;28;20038;-63
2023/05/20 01:03:24;;;;;;;1.55;0.20;;;;;;;14.61;52.20;101989.69;4988766;28;20045;-64
2023/05/20 01:05:49;;;;;;;0.80;0.30;;;;;;;14.57;52.17;101992.31;4970865;28;20061;-64
2023/05/20 01:08:15;;;;;;;0.10;0.10;;;;;;;14.44;52.28;101997.00;4971706;28;20038;-63
2023/05/20 01:10:45;;;;;;;0.80;0.20;;;;;;;14.48;52.59;101986.25;4968782;28;20461;-64
2023/05/20 01:13:16;;;;;;;0.10;0.10;;;;;;;14.44;52.67;101983.44;4980575;28;20029;-64
2023/05/20 01:15:44;;;;;;;1.65;0.10;;;;;;;14.47;52.63;101981.97;4989392;28;20026;-61
2023/05/20 01:18:11;;;;;;;0.10;0.10;;;;;;;14.45;52.63;101982.31;4971353;28;20048;-62
2023/05/20 01:20:38;;;;;;;0.10;0.10;;;;;;;14.50;52.91;101980.50;4988950;28;20030;-63
2023/05/20 01:23:03;;;;;;;0.10;0.10;;;;;;;14.55;52.58;101982.94;4986334;28;20022;-63
2023/05/20 01:25:29;;;;;;;0.10;0.10;;;;;;;14.59;52.56;101984.63;4969229;28;20112;-61
2023/05/20 01:27:59;;;;;;;0.10;0.10;;;;;;;14.63;52.65;101987.41;4971349;28;20041;-62
2023/05/20 01:30:38;;;;;;;0.20;0.20;;;;;;;14.29;53.00;101984.22;4979757;28;20511;-62
2023/05/20 01:33:28;;;;;;;0.10;0.10;;;;;;;14.26;53.36;101993.00;4987406;28;20034;-62
2023/05/20 01:35:54;;;;;;;0.05;0.05;;;;;;;14.08;53.58;101990.94;4928356;29;20054;-62
2023/05/20 01:38:21;;;;;;;0.20;0.20;;;;;;;14.26;53.59;101981.38;4924500;29;20047;-63
2023/05/20 01:40:48;;;;;;;0.10;0.10;;;;;;;14.32;53.17;101990.88;4913647;29;20071;-63
2023/05/20 01:43:15;;;;;;;0.08;0.08;;;;;;;14.29;53.27;101992.34;4910773;29;20118;-62
2023/05/20 01:45:42;;;;;;;0.10;0.10;;;;;;;14.11;53.69;101985.59;4913208;29;20040;-62
2023/05/20 01:48:10;;;;;;;0.20;0.20;;;;;;;14.27;53.23;101983.75;4928329;29;20032;-62
2023/05/20 01:50:36;;;;;;;0.05;0.05;;;;;;;14.27;53.49;101983.75;4927763;29;20039;-62
2023/05/20 01:53:02;;;;;;;0.10;0.10;;;;;;;14.26;53.68;101975.97;4932032;29;20083;-62
2023/05/20 01:55:27;;;;;;;0.32;0.32;;;;;;;14.23;53.57;101982.06;4933620;29;20027;-63
2023/05/20 01:57:53;;;;;;;0.10;0.10;;;;;;;14.16;53.94;101988.09;4915018;29;20119;-62
2023/05/20 02:00:19;;;;;;;0.20;0.10;;;;;;;14.20;53.63;101983.56;4916826;29;20048;-64
2023/05/20 02:02:45;;;;;;;0.10;0.10;;;;;;;14.27;53.62;101985.66;4933789;29;20028;-61
2023/05/20 02:05:11;;;;;;;0.10;0.10;;;;;;;14.34;53.55;101992.06;4932895;29;20027;-62
2023/05/20 02:07:37;;;;;;;0.10;0.10;;;;;;;14.15;53.54;101986.50;4919004;29;20438;-62
2023/05/20 02:10:03;;;;;;;0.75;0.15;;;;;;;14.07;53.93;101990.13;4931230;29;20471;-62
2023/05/20 02:12:29;;;;;;;0.10;0.10;;;;;;;14.04;54.38;101990.84;4933435;28;20038;-62
2023/05/20 02:14:55;;;;;;;0.22;0.20;;;;;;;14.14;54.06;101984.94;4976029;28;20037;-62
2023/05/20 02:17:20;;;;;;;0.15;0.15;;;;;;;14.12;54.58;101975.56;4974703;28;20046;-63
2023/05/20 02:19:46;;;;;;;0.25;0.20;;;;;;;14.01;54.66;101975.28;4976179;28;20034;-62
2023/05/20 02:22:12;;;;;;;0.10;0.10;;;;;;;13.98;54.61;101975.97;4975215;28;20030;-62
2023/05/20 02:24:58;;;;;;;1.27;0.25;;;;;;;13.97;55.06;101977.09;4971687;28;20096;-62
2023/05/20 02:27:23;;;;;;;0.00;0.00;;;;;;;14.07;55.02;101971.19;4893651;29;20048;-63
2023/05/20 02:29:49;;;;;;;0.08;0.03;;;;;;;14.02;55.04;101971.44;4895894;29;20064;-63
2023/05/20 02:32:34;;;;;;;2.95;0.20;;;;;;;14.12;55.02;101962.81;4868241;29;20071;-63
2023/05/20 02:35:00;;;;;;;0.10;0.10;;;;;;;14.21;55.16;101970.78;4839935;29;20072;-62
2023/05/20 02:37:27;;;;;;;0.25;0.10;;;;;;;14.23;55.21;101961.16;4838335;29;20509;-62
2023/05/20 02:39:53;;;;;;;0.10;0.10;;;;;;;14.24;55.25;101970.09;4841835;29;20494;-63
2023/05/20 02:42:18;;;;;;;0.10;0.10;;;;;;;14.32;55.53;101966.47;4857691;29;20065;-62
2023/05/20 02:44:44;;;;;;;0.00;0.00;;;;;;;14.22;55.52;101969.66;4849174;29;20041;-63
2023/05/20 02:47:12;;;;;;;0.00;0.00;;;;;;;14.20;55.72;101961.88;4857388;29;20037;-63
2023/05/20 02:49:38;;;;;;;0.20;0.20;;;;;;;14.25;55.96;101974.38;4841310;29;20731;-63
2023/05/20 02:52:04;;;;;;;0.10;0.10;;;;;;;14.11;56.49;101966.66;4841117;29;20061;-62
2023/05/20 02:54:29;;;;;;;0.10;0.10;;;;;;;13.93;57.58;101968.09;4856735;29;20082;-62
2023/05/20 02:56:55;;;;;;;0.10;0.10;;;;;;;13.86;57.99;101972.53;4852393;29;20057;-62
2023/05/20 02:59:21;;;;;;;0.50;0.20;;;;;;;13.89;58.65;101972.63;4842044;29;20513;-62
2023/05/20 03:01:46;;;;;;;3.40;0.38;;;;;;;13.94;58.59;101971.56;4857167;29;20033;-63
2023/05/20 03:04:11;;;;;;;0.17;0.17;;;;;;;13.95;58.98;101971.25;4881524;29;20044;-62
2023/05/20 03:06:37;;;;;;;0.00;0.00;;;;;;;13.92;59.49;101971.91;4907316;29;20069;-62
2023/05/20 03:09:03;;;;;;;0.20;0.20;;;;;;;13.89;60.19;101985.38;4901170;29;20123;-62
2023/05/20 03:11:28;;;;;;;0.20;0.20;;;;;;;13.93;59.85;101973.50;4917738;28;20089;-63
2023/05/20 03:13:54;;;;;;;0.08;0.08;;;;;;;13.88;61.05;101986.50;4971977;28;20042;-62
2023/05/20 03:16:19;;;;;;;0.17;0.10;;;;;;;13.82;61.76;101977.81;4989039;28;20117;-62
2023/05/20 03:18:45;;;;;;;0.10;0.10;;;;;;;13.81;61.89;101986.28;4971372;28;20142;-62
2023/05/20 03:21:12;;;;;;;0.13;0.13;;;;;;;13.85;61.70;101985.28;4978322;28;20033;-62
2023/05/20 03:23:37;;;;;;;0.10;0.10;;;;;;;13.86;62.01;101989.53;4969170;28;20034;-62
2023/05/20 03:26:05;;;;;;;0.20;0.20;;;;;;;13.84;62.48;101980.22;4973532;28;20030;-63
2023/05/20 03:28:32;;;;;;;0.10;0.10;;;;;;;13.80;63.28;101982.03;4971459;28;20034;-62
2023/05/20 03:30:57;;;;;;;0.13;0.10;;;;;;;13.87;62.84;101980.31;4972633;28;20030;-63
2023/05/20 03:33:25;;;;;;;0.10;0.10;;;;;;;13.91;63.14;101969.56;4967590;28;20121;-63
2023/05/20 03:35:50;;;;;;;0.10;0.10;;;;;;;13.81;63.58;101968.13;4975021;28;20112;-62
2023/05/20 03:38:16;;;;;;;0.10;0.10;;;;;;;13.70;64.07;101975.16;4969444;28;20560;-62
2023/05/20 03:40:41;;;;;;;0.20;0.20;;;;;;;13.54;65.85;101983.22;4965994;28;20074;-63
2023/05/20 03:43:07;;;;;;;0.20;0.20;;;;;;;13.63;65.48;101976.88;4962634;28;20057;-63
2023/05/20 03:45:33;;;;;;;2.08;0.20;;;;;;;13.57;65.80;101976.31;4980339;28;20042;-63
2023/05/20 03:48:06;;;;;;;0.03;0.03;;;;;;;13.60;65.84;101975.66;4970854;28;20563;-63
2023/05/20 03:50:33;;;;;;;0.10;0.10;;;;;;;13.67;66.51;101975.03;4965686;28;20441;-62
2023/05/20 03:52:59;;;;;;;0.00;0.00;;;;;;;13.59;67.03;101974.84;4979044;28;20085;-63
2023/05/20 03:55:26;;;;;;;0.20;0.20;;;;;;;13.70;66.34;101971.66;4968030;28;20039;-63
2023/05/20 03:57:52;;;;;;;0.17;0.17;;;;;;;13.71;66.77;101976.72;4970454;28;20034;-62
2023/05/20 04:00:18;;;;;;;0.20;0.20;;;;;;;13.77;66.98;101975.38;4972773;28;20551;-63
2023/05/20 04:02:44;;;;;;;2.78;0.35;;;;;;;13.77;67.22;101964.53;4985119;28;20127;-62
2023/05/20 04:05:12;;;;;;;0.10;0.10;;;;;;;13.70;67.60;101972.47;4987933;28;20034;-62
2023/05/20 04:07:39;;;;;;;0.10;0.10;;;;;;;13.72;68.30;101972.91;4963316;28;20032;-63
2023/05/20 04:10:07;;;;;;;0.85;0.47;;;;;;;13.72;68.26;101981.03;4967263;28;20034;-62
2023/05/20 04:12:37;;;;;;;0.03;0.03;;;;;;;13.77;68.72;101978.06;4959258;28;20030;-63
2023/05/20 04:15:03;;;;;;;0.20;0.20;;;;;;;13.80;68.37;101982.78;4969445;28;20441;-63
2023/05/20 04:17:37;;;;;;;0.25;0.17;;;;;;;13.71;69.42;101982.16;4971654;28;20101;-63
2023/05/20 04:20:05;;;;;;;0.10;0.05;;;;;;;13.76;69.69;101973.81;4971066;28;20432;-63
2023/05/20 04:22:32;;;;;;;0.10;0.10;;;;;;;13.80;70.66;101979.31;4972984;28;20035;-61
2023/05/20 04:24:58;;;;;;;0.20;0.15;;;;;;;13.77;70.85;101982.69;4957653;28;20441;-63
2023/05/20 04:27:27;;;;;;;0.10;0.10;;;;;;;13.74;71.48;101969.84;4967954;28;20042;-63
2023/05/20 04:29:53;;;;;;;0.25;0.25;;;;;;;13.88;71.23;101981.09;4989279;28;20389;-65
2023/05/20 04:32:19;;;;;;;0.10;0.10;;;;;;;13.93;71.28;101978.94;4970584;28;20035;-62
2023/05/20 04:34:46;;;;;;;0.52;0.20;;;;;;;14.00;71.24;101978.31;4950676;28;20057;-63
2023/05/20 04:37:12;;;;;;;0.28;0.20;;;;;;;13.99;71.24;101982.97;4968243;28;20019;-62
2023/05/20 04:39:42;;;;;;;0.10;0.10;;;;;;;13.95;72.00;101982.09;4972056;28;20036;-63
2023/05/20 04:42:12;;;;;;;2.95;0.15;;;;;;;13.94;72.45;101991.31;4972841;28;20033;-62
2023/05/20 04:44:38;;;;;;;3.20;0.20;;;;;;;14.01;72.58;101983.41;4972941;28;20065;-62
2023/05/20 04:47:06;;;;;;;0.10;0.10;;;;;;;14.02;72.58;101984.19;4973108;28;20113;-63
2023/05/20 04:49:35;;;;;;;0.08;0.08;;;;;;;14.06;72.56;101983.16;4970389;28;20544;-62
2023/05/20 04:52:01;;;;;;;0.15;0.15;;;;;;;14.11;73.09;101982.91;4984993;28;20576;-62
2023/05/20 04:54:26;;;;;;;0.10;0.10;;;;;;;14.10;73.52;101985.97;4969347;28;20019;-63
2023/05/20 04:56:52;;;;;;;0.22;0.22;;;;;;;14.02;73.85;101973.34;4976913;28;20035;-63
2023/05/20 04:59:18;;;;;;;0.32;0.32;;;;;;;14.05;73.90;101978.84;4990050;28;20398;-63
2023/05/20 05:01:43;;;;;;;0.15;0.10;;;;;;;14.14;74.55;101992.28;4997395;23;20060;-66
2023/05/20 05:04:09;;;;;;;0.50;0.47;;;;;;;14.25;73.92;101983.28;5010452;28;20040;-66
2023/05/20 05:06:35;;;;;;;0.05;0.05;;;;;;;14.12;74.19;101987.19;4991407;28;20137;-66
2023/05/20 05:09:01;;;;;;;0.75;0.30;;;;;;;14.08;75.08;101985.50;4993803;28;20030;-65
2023/05/20 05:11:27;;;;;;;0.20;0.20;;;;;;;14.18;74.75;101988.53;5008966;28;20021;-66
2023/05/20 05:13:54;;;;;;;0.00;0.00;;;;;;;14.25;74.67;101990.63;4999778;28;20038;-65
2023/05/20 05:16:22;;;;;;;0.00;0.00;;;;;;;14.40;74.29;101982.56;4985915;28;20029;-65
2023/05/20 05:18:47;;;;;;;0.08;0.08;;;;;;;14.36;74.54;101978.19;4993300;28;20418;-64
2023/05/20 05:21:13;;;;;;;0.10;0.10;;;;;;;14.45;74.76;101985.03;4993362;28;20498;-65
2023/05/20 05:23:41;;;;;;;0.35;0.13;;;;;;;14.60;74.11;101979.97;4983158;28;20037;-65
2023/05/20 05:26:07;;;;;;;0.10;0.10;;;;;;;14.60;74.20;101980.75;4977864;28;20037;-65
2023/05/20 05:28:32;;;;;;;0.13;0.10;;;;;;;14.78;73.76;101990.13;4984387;28;20033;-64
2023/05/20 05:31:00;;;;;;;0.43;0.43;;;;;;;14.80;73.59;101995.19;4991153;28;20030;-64
2023/05/20 05:33:26;;;;;;;0.13;0.13;;;;;;;14.93;73.12;101993.97;4990032;28;20026;-66
2023/05/20 05:35:52;;;;;;;0.20;0.20;;;;;;;15.02;73.23;101984.50;5001845;28;20034;-65
2023/05/20 05:38:18;;;;;;;0.10;0.10;;;;;;;15.17;72.18;101982.94;4988744;28;20396;-65
2023/05/20 05:40:44;;;;;;;0.20;0.20;;;;;;;15.29;71.88;101997.16;4976419;28;20069;-66
2023/05/20 05:43:10;;;;;;;0.20;0.20;;;;;;;15.47;71.45;101988.66;4969919;28;20031;-66
2023/05/20 05:45:56;;;;;;;0.20;0.20;;;;;;;15.59;70.74;101992.03;4984775;28;20042;-65
2023/05/20 05:48:22;;;;;;;0.32;0.32;;;;;;;15.74;70.16;101991.19;4927702;29;20052;-65
2023/05/20 05:51:07;;;;;;;0.15;0.15;;;;;;;15.85;70.02;101991.44;4898621;29;20047;-65
2023/05/20 05:53:34;;;;;;;0.38;0.30;;;;;;;16.05;69.97;101988.34;4890203;29;20052;-65
2023/05/20 05:56:00;;;;;;;0.00;0.00;;;;;;;16.27;68.68;101984.09;4908442;29;20047;-64
2023/05/20 05:58:25;;;;;;;0.28;0.10;;;;;;;16.39;68.01;101983.16;4902001;29;20611;-65
2023/05/20 06:00:51;;;;;;;0.20;0.10;;;;;;;16.52;67.42;101987.28;4877944;29;20056;-64
2023/05/20 06:03:17;;;;;;;0.10;0.10;;;;;;;16.59;67.82;101993.66;4908306;29;20028;-66
2023/05/20 06:05:46;;;;;;;0.10;0.10;;;;;;;16.87;67.26;101982.47;4908062;29;20048;-65
2023/05/20 06:08:11;;;;;;;0.57;0.30;;;;;;;16.91;66.05;101984.09;4905883;29;20048;-65
2023/05/20 06:10:37;;;;;;;0.00;0.00;;;;;;;17.13;64.77;101979.75;4905424;29;20104;-66
2023/05/20 06:13:03;;;;;;;0.10;0.10;;;;;;;17.23;64.60;101976.41;4894596;29;20063;-66
2023/05/20 06:15:29;;;;;;;0.10;0.10;;;;;;;17.37;64.23;101973.88;4892233;29;20039;-65
2023/05/20 06:17:55;;;;;;;0.00;0.00;;;;;;;17.57;64.43;101982.75;4894126;29;20040;-65
2023/05/20 06:20:21;;;;;;;0.10;0.10;;;;;;;17.68;63.65;101987.19;4913134;29;20398;-65
2023/05/20 06:22:46;;;;;;;0.10;0.10;;;;;;;17.86;62.81;101980.03;4905125;29;20596;-65
2023/05/20 06:25:12;;;;;;;0.43;0.20;;;;;;;17.95;62.12;101987.91;4928217;28;20039;-66
2023/05/20 06:27:39;;;;;;;0.10;0.10;;;;;;;18.03;62.16;101979.44;4932416;28;20130;-65
2023/05/20 06:30:08;;;;;;;0.50;0.20;;;;;;;18.16;61.16;101976.44;4951062;28;20136;-65
2023/05/20 06:32:36;;;;;;;0.10;0.10;;;;;;;18.25;61.05;101975.00;4983260;28;20778;-65
2023/05/20 06:35:02;;;;;;;0.13;0.13;;;;;;;18.38;61.15;101972.78;4974670;28;20034;-65
2023/05/20 06:37:28;;;;;;;0.10;0.10;;;;;;;18.42;60.34;101963.50;4975516;28;20510;-67
2023/05/20 06:39:54;;;;;;;0.10;0.10;;;;;;;18.42;60.61;101974.44;4994943;28;20065;-65
2023/05/20 06:42:22;;;;;;;2.85;0.10;;;;;;;18.50;60.58;101980.72;4998366;28;20398;-66
2023/05/20 06:45:01;;;;;;;0.10;0.10;;;;;;;18.65;60.42;101971.50;4983737;28;20022;-66
2023/05/20 06:47:36;;;;;;;0.30;0.10;;;;;;;18.77;59.99;101973.97;4994248;28;20042;-67
2023/05/20 06:50:02;;;;;;;0.00;0.00;;;;;;;18.80;60.50;101982.16;4984625;28;20030;-65
2023/05/20 06:52:28;;;;;;;0.10;0.10;;;;;;;18.73;59.00;101973.94;4974442;28;20064;-66
2023/05/20 06:54:54;;;;;;;0.80;0.40;;;;;;;18.68;58.57;101989.84;4992041;28;20493;-65
2023/05/20 06:57:21;;;;;;;0.10;0.10;;;;;;;18.77;58.79;101980.22;4984730;28;20034;-65
2023/05/20 06:59:46;;;;;;;0.30;0.10;;;;;;;19.04;58.58;101982.75;4981051;28;20030;-66
2023/05/20 07:02:13;;;;;;;0.93;0.30;;;;;;;19.17;57.82;101984.78;4995900;28;20037;-66
2023/05/20 07:04:39;;;;;;;0.30;0.30;;;;;;;19.33;57.60;101970.88;4991737;28;20141;-66
2023/05/20 07:07:05;;;;;;;0.20;0.20;;;;;;;19.45;56.86;101970.56;4994001;28;20040;-68
2023/05/20 07:09:30;;;;;;;0.20;0.10;;;;;;;19.54;56.29;101968.25;4995613;28;20132;-66
2023/05/20 07:11:56;;;;;;;0.68;0.32;;;;;;;19.65;56.07;101969.88;4989262;28;20470;-67
2023/05/20 07:14:21;;;;;;;1.70;0.13;;;;;;;19.78;55.45;101968.34;5012922;28;20073;-66
2023/05/20 07:16:47;;;;;;;0.13;0.13;;;;;;;19.78;54.38;101965.63;4994403;28;20037;-67
2023/05/20 07:19:13;;;;;;;0.73;0.30;;;;;;;19.84;55.12;101959.78;4994125;28;20029;-66
2023/05/20 07:21:38;;;;;;;0.10;0.10;;;;;;;20.04;55.78;101970.00;4989057;28;20033;-66
2023/05/20 07:24:16;;;;;;;0.20;0.15;;;;;;;20.14;54.91;101974.72;4993386;28;20022;-66
2023/05/20 07:26:42;;;;;;;0.20;0.20;;;;;;;20.28;53.95;101976.75;5000030;28;20045;-67
2023/05/20 07:29:09;;;;;;;0.20;0.20;;;;;;;20.40;53.44;101965.44;5007201;28;20124;-66
2023/05/20 07:31:35;;;;;;;0.63;0.30;;;;;;;20.56;53.11;101965.81;4976305;28;20379;-66
2023/05/20 07:34:01;;;;;;;1.05;0.20;;;;;;;20.62;53.09;101965.03;5001041;28;20088;-68
2023/05/20 07:36:27;;;;;;;0.30;0.20;;;;;;;20.75;52.59;101962.69;4988725;28;20034;-66
2023/05/20 07:38:54;;;;;;;0.38;0.20;;;;;;;20.73;52.34;101962.28;4992710;28;20038;-67
2023/05/20 07:41:20;;;;;;;0.13;0.10;;;;;;;20.86;52.46;101957.22;5002141;28;20045;-67
2023/05/20 07:43:45;;;;;;;0.10;0.10;;;;;;;20.83;52.52;101958.78;4996062;28;20036;-65
2023/05/20 07:46:11;;;;;;;0.40;0.20;;;;;;;20.78;51.94;101953.69;4994614;28;20461;-66
2023/05/20 07:48:36;;;;;;;0.55;0.30;;;;;;;21.05;52.03;101952.16;4992202;28;20041;-65
2023/05/20 07:51:03;;;;;;;0.17;0.13;;;;;;;20.88;50.70;101954.88;5004372;28;20045;-64
2023/05/20 07:53:28;;;;;;;0.80;0.30;;;;;;;21.04;50.54;101944.31;4999734;28;20470;-66
2023/05/20 07:55:57;;;;;;;0.65;0.30;;;;;;;21.06;50.56;101947.44;4996007;28;20112;-64
2023/05/20 07:58:26;;;;;;;;;;;;;;;20.98;50.33;101948.59;4994770;28;20121;-65
2023/05/20 08:00:51;;;;;;;0.13;0.13;;;;;;;21.35;50.29;101944.22;4989795;28;20007;-64
2023/05/20 08:03:18;;;;;;;0.30;0.20;;;;;;;21.36;49.05;101954.03;4982805;28;20030;-65
2023/05/20 08:06:04;;;;;;;0.20;0.20;;;;;;;21.00;50.08;101949.00;4989383;28;20722;-63
2023/05/20 08:08:30;;;;;;;0.93;0.20;;;;;;;21.24;49.73;101951.72;4984185;28;20065;-64
2023/05/20 08:11:01;;;;;;;0.65;0.10;;;;;;;21.23;49.84;101950.16;4993674;28;20148;-65
2023/05/20 08:13:28;;;;;;;0.10;0.10;;;;;;;21.13;49.27;101948.22;4985116;28;20174;-64
2023/05/20 08:15:54;;;;;;;0.63;0.25;;;;;;;20.92;49.16;101952.91;4992810;28;20064;-64
2023/05/20 08:18:19;;;;;;;0.20;0.20;;;;;;;20.48;49.85;101956.81;4977076;28;20033;-65
2023/05/20 08:20:46;;;;;;;0.32;0.20;;;;;;;20.27;50.50;101947.78;4984104;28;20133;-65
2023/05/20 08:23:12;;;;;;;0.15;0.15;;;;;;;20.09;50.78;101953.19;4983850;28;20079;-64
2023/05/20 08:25:37;;;;;;;0.22;0.20;;;;;;;19.99;50.85;101944.97;4985194;28;20441;-65
2023/05/20 08:28:05;;;;;;;0.60;0.15;;;;;;;20.16;51.00;101941.50;4990616;28;20033;-66
2023/05/20 08:30:32;;;;;;;0.30;0.20;;;;;;;20.23;50.84;101945.06;4984673;28;20489;-66
2023/05/20 08:32:59;;;;;;;0.30;0.20;;;;;;;20.28;50.88;101936.47;4985150;28;20048;-65
2023/05/20 08:35:26;;;;;;;0.68;0.30;;;;;;;20.30;50.41;101936.09;4981946;28;20506;-64
2023/05/20 08:37:55;;;;;;;0.17;0.10;;;;;;;20.45;50.21;101932.19;4985091;28;20033;-66
2023/05/20 08:40:21;;;;;;;0.60;0.25;;;;;;;20.51;50.69;101928.69;4988902;28;20448;-65
2023/05/20 08:42:48;;;;;;;0.20;0.20;;;;;;;20.59;51.56;101926.72;4995319;28;20045;-66
2023/05/20 08:45:18;;;;;;;0.28;0.20;;;;;;;20.59;51.75;101918.50;4976755;28;20030;-64
2023/05/20 08:47:47;;;;;;;0.30;0.30;;;;;;;20.64;51.03;101918.88;5001896;28;20030;-65
2023/05/20 08:50:13;;;;;;;0.30;0.20;;;;;;;20.58;50.10;101920.47;4990162;28;20034;-66
2023/05/20 08:52:44;;;;;;;0.10;0.10;;;;;;;20.48;50.08;101923.19;5001608;28;20037;-66
2023/05/20 08:55:14;;;;;;;0.50;0.17;;;;;;;20.42;48.81;101922.78;5004588;28;20441;-64
2023/05/20 08:57:40;;;;;;;0.50;0.43;;;;;;;20.45;49.60;101927.50;5004850;28;20037;-65
2023/05/20 09:00:12;;;;;;;0.50;0.28;;;;;;;20.33;50.68;101921.63;5002247;28;20038;-64
2023/05/20 09:02:38;;;;;;;0.40;0.20;;;;;;;20.31;49.69;101916.53;5001869;28;20072;-66
2023/05/20 09:05:04;;;;;;;0.30;0.08;;;;;;;20.34;50.11;101909.50;4994390;28;21579;-66
2023/05/20 09:07:30;;;;;;;0.93;0.50;;;;;;;19.99;49.16;101910.22;5000741;28;20066;-65
2023/05/20 09:09:56;;;;;;;0.35;0.20;;;;;;;20.17;50.02;101902.03;4985630;28;20025;-65
2023/05/20 09:12:22;;;;;;;0.20;0.20;;;;;;;20.23;49.91;101912.22;5004214;28;20065;-66
2023/05/20 09:14:47;;;;;;;0.10;0.10;;;;;;;20.54;49.61;101910.66;5002565;28;20564;-66
2023/05/20 09:17:14;;;;;;;0.10;0.10;;;;;;;20.86;50.20;101900.50;5004188;28;20038;-66
2023/05/20 09:19:40;;;;;;;0.10;0.10;;;;;;;21.33;49.44;101902.72;5007266;28;20029;-65
2023/05/20 09:22:06;;;;;;;0.35;0.20;;;;;;;21.60;46.99;101913.22;4984656;28;20030;-66
2023/05/20 09:24:52;;;;;;;0.52;0.20;;;;;;;21.72;47.07;101899.03;4990189;28;20506;-66
2023/05/20 09:27:19;;;;;;;0.30;0.20;;;;;;;21.78;46.34;101911.94;4967478;28;20046;-69
2023/05/20 09:29:47;;;;;;;0.85;0.10;;;;;;;21.71;45.86;101895.50;4953589;28;20066;-65
2023/05/20 09:32:13;;;;;;;0.30;0.10;;;;;;;21.60;47.38;101894.00;4972580;28;20116;-65
2023/05/20 09:34:40;;;;;;;0.47;0.20;;;;;;;21.56;47.01;101897.53;4963143;28;20035;-65
2023/05/20 09:37:07;;;;;;;0.45;0.20;;;;;;;21.24;47.18;101896.88;4977393;28;20438;-65
2023/05/20 09:39:44;;;;;;;0.05;0.05;;;;;;;20.87;47.06;101884.81;4981548;28;22030;-65
2023/05/20 09:42:27;;;;;;;0.52;0.20;;;;;;;20.62;47.98;101896.59;4975828;28;20172;-65
2023/05/20 09:45:13;;;;;;;0.32;0.20;;;;;;;20.69;48.36;101895.81;4965326;28;20066;-65
2023/05/20 09:47:39;;;;;;;0.43;0.10;;;;;;;20.61;48.85;101897.00;4928053;29;20428;-64
2023/05/20 09:50:08;;;;;;;0.20;0.20;;;;;;;20.34;48.92;101898.56;4929024;29;20051;-67
2023/05/20 09:52:38;;;;;;;0.52;0.30;;;;;;;20.32;49.58;101882.53;4925341;29;20051;-65
2023/05/20 09:55:09;;;;;;;0.03;0.03;;;;;;;20.39;50.08;101888.00;4927635;29;20036;-65
2023/05/20 09:57:36;;;;;;;0.13;0.13;;;;;;;20.34;50.15;101884.88;4906362;29;20452;-67
2023/05/20 10:00:03;;;;;;;0.10;0.10;;;;;;;;;;4927959;29;20083;-65
2023/05/20 10:02:44;;;;;;;0.22;0.20;;;;;;;20.36;49.57;101901.69;4929727;29;20032;-65
2023/05/20 10:05:32;;;;;;;0.15;0.15;;;;;;;20.42;49.67;101894.66;4928336;29;20526;-65
2023/05/20 10:08:19;;;;;;;0.10;0.00;;;;;;;20.63;49.19;101892.66;4927275;29;20066;-66
2023/05/20 10:10:50;;;;;;;0.13;0.13;;;;;;;20.66;49.75;101894.63;4929705;29;20042;-65
2023/05/20 10:13:37;;;;;;;3.08;0.30;;;;;;;20.44;49.60;101881.38;4929815;29;20493;-64
2023/05/20 10:16:30;;;;;;;0.43;0.10;;;;;;;20.41;49.51;101873.91;4930817;29;20087;-65
2023/05/20 10:19:09;;;;;;;0.20;0.10;;;;;;;20.44;48.97;101867.69;4931210;29;20492;-65
2023/05/20 10:21:35;;;;;;;0.28;0.10;;;;;;;20.65;50.25;101873.13;4928489;29;20050;-65
2023/05/20 10:24:07;;;;;;;0.10;0.10;;;;;;;21.08;48.81;101860.16;4948055;28;20457;-67
2023/05/20 10:26:40;;;;;;;0.10;0.10;;;;;;;21.47;48.62;101864.28;5011300;28;20037;-66
2023/05/20 10:29:19;;;;;;;0.20;0.20;;;;;;;21.49;47.02;101845.47;5008548;28;20096;-66
2023/05/20 10:31:48;;;;;;;0.75;0.20;;;;;;;21.50;47.67;101863.47;5006528;28;20168;-65
2023/05/20 10:34:21;;;;;;;0.13;0.10;;;;;;;21.60;49.24;101861.88;5007198;28;20482;-67
2023/05/20 10:36:53;;;;;;;0.65;0.20;;;;;;;22.08;49.05;101848.28;5012042;28;20442;-66
2023/05/20 10:39:24;;;;;;;0.32;0.20;;;;;;;22.42;48.22;101858.19;5009752;28;20040;-66
2023/05/20 10:41:50;;;;;;;0.20;0.20;;;;;;;22.40;45.86;101846.81;5008596;28;20048;-65
2023/05/20 10:44:15;;;;;;;0.80;0.40;;;;;;;22.43;46.70;101859.72;5012846;28;20022;-66
2023/05/20 10:46:40;;;;;;;0.38;0.20;;;;;;;22.64;46.00;101853.31;5009769;28;20041;-64
2023/05/20 10:49:17;;;;;;;0.28;0.20;;;;;;;21.94;46.19;101854.66;4991401;28;20450;-66
2023/05/20 10:51:45;;;;;;;0.40;0.20;;;;;;;22.15;46.13;101849.00;4997276;28;20046;-65
2023/05/20 10:54:14;;;;;;;0.93;0.30;;;;;;;22.22;45.86;101840.69;5008177;28;20040;-66
2023/05/20 10:56:50;;;;;;;0.93;0.25;;;;;;;22.25;46.83;101844.59;5004122;28;20398;-66
2023/05/20 10:59:15;;;;;;;0.65;0.45;;;;;;;22.10;46.07;101843.94;5008334;28;20030;-66
2023/05/20 11:01:42;;;;;;;0.38;0.35;;;;;;;21.85;46.31;101848.03;5029174;22;20057;-66
2023/05/20 11:04:08;;;;;;;2.03;0.30;;;;;;;21.50;47.02;101843.53;5005508;28;20113;-66
2023/05/20 11:06:34;;;;;;;0.80;0.30;;;;;;;21.25;47.67;101824.44;4982451;28;20117;-67
2023/05/20 11:09:07;;;;;;;0.40;0.22;;;;;;;21.20;47.75;101830.34;5003692;28;20034;-66
2023/05/20 11:11:32;;;;;;;0.22;0.10;;;;;;;21.08;48.71;101819.81;4998751;28;20038;-66
2023/05/20 11:13:59;;;;;;;0.30;0.08;;;;;;;21.05;48.91;101823.38;5005807;28;20529;-68
2023/05/20 11:16:25;;;;;;;0.22;0.20;;;;;;;21.08;49.12;101830.78;4995341;28;20060;-67
2023/05/20 11:18:51;;;;;;;0.32;0.20;;;;;;;21.14;48.75;101820.19;4997595;28;20034;-68
2023/05/20 11:21:37;;;;;;;0.10;0.10;;;;;;;20.94;49.34;101830.81;4984063;28;20473;-67
2023/05/20 11:24:03;;;;;;;0.28;0.28;;;;;;;20.95;49.46;101826.88;4924535;29;20516;-67
2023/05/20 11:26:28;;;;;;;0.30;0.30;;;;;;;21.12;48.90;101823.31;4927987;29;20043;-66
2023/05/20 11:28:53;;;;;;;0.95;0.30;;;;;;;21.11;48.67;101824.53;4912882;29;20042;-68